createdAt,value
2023-01-18T00:00:08.441Z,-0.16
2023-01-18T00:02:56.017Z,-0.16
2023-01-18T00:05:43.305Z,-0.04
2023-01-18T00:08:31.848Z,0.26
2023-01-18T00:11:18.937Z,0.34
2023-01-18T00:14:05.392Z,0.15
2023-01-18T00:16:51.639Z,0.12
2023-01-18T00:19:37.828Z,0.04
2023-01-18T00:22:24.273Z,-0.05
2023-01-18T00:25:11.015Z,-0.19
2023-01-18T00:27:57.517Z,-0.18
2023-01-18T00:30:43.812Z,-0.19
2023-01-18T00:33:30.032Z,-0.20
2023-01-18T00:36:17.777Z,-0.47
2023-01-18T00:39:04.362Z,-0.36
2023-01-18T00:42:09.696Z,-0.49
2023-01-18T00:44:56.318Z,-0.42
2023-01-18T00:47:42.683Z,-0.65
2023-01-18T00:50:28.932Z,-0.34
2023-01-18T00:53:15.124Z,-0.28
2023-01-18T00:56:01.580Z,-0.35
2023-01-18T00:58:48.144Z,-0.21
2023-01-18T01:01:34.817Z,-0.25
2023-01-18T01:04:39.936Z,-0.05
2023-01-18T01:07:26.187Z,-0.18
2023-01-18T01:10:12.373Z,-0.15
2023-01-18T01:13:17.479Z,-0.28
2023-01-18T01:16:27.864Z,-0.14
2023-01-18T01:19:32.873Z,0.02
2023-01-18T01:22:37.789Z,-0.03
2023-01-18T01:25:43.011Z,0.07
2023-01-18T01:28:29.402Z,0.22
2023-01-18T01:31:17.264Z,-0.19
2023-01-18T01:34:03.540Z,0.30
2023-01-18T01:36:50.752Z,0.27
2023-01-18T01:39:37.405Z,0.04
2023-01-18T01:42:23.483Z,0.20
2023-01-18T01:45:10.397Z,0.13
2023-01-18T01:47:57.467Z,0.12
2023-01-18T01:50:43.607Z,0.10
2023-01-18T01:53:29.824Z,0.14
2023-01-18T01:56:18.579Z,-0.06
2023-01-18T01:59:06.211Z,0.17
2023-01-18T02:01:52.525Z,0.12
2023-01-18T02:04:44.121Z,-0.05
2023-01-18T02:07:32.553Z,0.06
2023-01-18T02:10:19.173Z,0.20
2023-01-18T02:13:09.389Z,-0.02
2023-01-18T02:16:34.460Z,0.24
2023-01-18T02:20:07.199Z,0.16
2023-01-18T02:23:14.635Z,0.20
2023-01-18T02:26:06.959Z,0.26
2023-01-18T02:29:03.891Z,0.13
2023-01-18T02:32:05.309Z,0.17
2023-01-18T02:35:07.672Z,0.27
2023-01-18T02:38:11.982Z,0.16
2023-01-18T02:41:01.419Z,0.20
2023-01-18T02:44:11.855Z,0.27
2023-01-18T02:46:58.214Z,0.28
2023-01-18T02:49:44.443Z,0.06
2023-01-18T02:52:41.828Z,0.39
2023-01-18T02:55:40.309Z,0.34
2023-01-18T02:58:47.566Z,0.43
2023-01-18T03:01:59.567Z,0.39
2023-01-18T03:04:55.596Z,0.30
2023-01-18T03:07:55.802Z,0.28
2023-01-18T03:11:15.553Z,0.08
2023-01-18T03:14:18.883Z,0.20
2023-01-18T03:17:25.733Z,0.33
2023-01-18T03:20:19.093Z,0.10
2023-01-18T03:23:34.998Z,0.19
2023-01-18T03:26:23.824Z,0.01
2023-01-18T03:29:31.657Z,-0.01
2023-01-18T03:32:37.160Z,0.04
2023-01-18T03:35:27.120Z,0.24
2023-01-18T03:38:14.531Z,0.16
2023-01-18T03:41:01.975Z,0.34
2023-01-18T03:43:52.652Z,0.02
2023-01-18T03:46:40.586Z,0.29
2023-01-18T03:49:29.916Z,0.12
2023-01-18T03:52:43.077Z,0.33
2023-01-18T03:55:43.473Z,0.17
2023-01-18T03:58:35.245Z,0.27
2023-01-18T04:01:22.242Z,0.28
2023-01-18T04:04:08.875Z,0.28
2023-01-18T04:06:54.946Z,0.15
2023-01-18T04:09:41.276Z,0.06
2023-01-18T04:12:28.235Z,-0.08
2023-01-18T04:15:14.534Z,0.02
2023-01-18T04:18:00.771Z,0.15
2023-01-18T04:20:47.047Z,0.05
2023-01-18T04:23:33.271Z,-0.10
2023-01-18T04:26:19.463Z,-0.04
2023-01-18T04:29:05.952Z,-0.18
2023-01-18T04:31:52.224Z,-0.31
2023-01-18T04:34:38.797Z,-0.38
2023-01-18T04:37:30.536Z,-0.17
2023-01-18T04:40:17.005Z,-0.08
2023-01-18T04:43:04.463Z,-0.19
2023-01-18T04:45:55.342Z,-0.18
2023-01-18T04:48:42.276Z,-0.05
2023-01-18T04:51:31.240Z,0.02
2023-01-18T04:54:18.659Z,-0.12
2023-01-18T04:57:04.819Z,-0.22
2023-01-18T04:59:51.333Z,-0.32
2023-01-18T05:02:38.038Z,-0.39
2023-01-18T05:05:26.339Z,-0.23
2023-01-18T05:08:12.779Z,-0.46
2023-01-18T05:11:04.559Z,-0.13
2023-01-18T05:13:51.231Z,-0.16
2023-01-18T05:16:37.661Z,-0.14
2023-01-18T05:19:24.091Z,-0.40
2023-01-18T05:22:10.598Z,-0.13
2023-01-18T05:24:56.859Z,-0.23
2023-01-18T05:27:43.132Z,-0.20
2023-01-18T05:30:29.376Z,-0.57
2023-01-18T05:33:19.511Z,-0.14
2023-01-18T05:36:06.304Z,-0.26
2023-01-18T05:38:52.613Z,-0.18
2023-01-18T05:41:38.827Z,-0.25
2023-01-18T05:44:25.497Z,-0.35
2023-01-18T05:47:11.812Z,-0.31
2023-01-18T05:50:00.422Z,-0.40
2023-01-18T05:52:46.657Z,-0.29
2023-01-18T05:55:33.261Z,-0.38
2023-01-18T05:58:19.955Z,-0.39
2023-01-18T06:01:08.271Z,-0.17
2023-01-18T06:03:55.264Z,-0.33
2023-01-18T06:06:41.704Z,-0.29
2023-01-18T06:09:30.019Z,-0.53
2023-01-18T06:12:16.569Z,-0.25
2023-01-18T06:15:03.307Z,-0.25
2023-01-18T06:17:49.783Z,-0.19
2023-01-18T06:20:36.712Z,-0.23
2023-01-18T06:23:24.044Z,-0.28
2023-01-18T06:26:10.419Z,-0.26
2023-01-18T06:28:57.735Z,-0.23
2023-01-18T06:31:44.095Z,-0.31
2023-01-18T06:34:30.605Z,-0.28
2023-01-18T06:37:17.335Z,-0.46
2023-01-18T06:40:03.779Z,-0.57
2023-01-18T06:42:50.401Z,-0.33
2023-01-18T06:45:36.881Z,-0.32
2023-01-18T06:48:24.711Z,-0.43
2023-01-18T06:51:12.464Z,-0.64
2023-01-18T06:53:58.927Z,-0.36
2023-01-18T06:56:45.523Z,-0.52
2023-01-18T06:59:32.041Z,-0.64
2023-01-18T07:02:19.975Z,-0.41
2023-01-18T07:05:06.791Z,-0.60
2023-01-18T07:07:53.185Z,-0.60
2023-01-18T07:10:39.659Z,-0.37
2023-01-18T07:13:26.088Z,-0.69
2023-01-18T07:16:17.382Z,-0.68
2023-01-18T07:19:04.632Z,-0.84
2023-01-18T07:21:53.623Z,-0.62
2023-01-18T07:24:39.999Z,-0.75
2023-01-18T07:27:26.761Z,-0.76
2023-01-18T07:30:13.770Z,-0.80
2023-01-18T07:33:00.495Z,-0.59
2023-01-18T07:35:46.969Z,-0.64
2023-01-18T07:38:33.952Z,-0.50
2023-01-18T07:41:21.995Z,-0.48
2023-01-18T07:44:11.869Z,-0.46
2023-01-18T07:46:58.478Z,-0.50
2023-01-18T07:49:47.997Z,-0.44
2023-01-18T07:52:41.934Z,-0.42
2023-01-18T07:55:28.870Z,-0.51
2023-01-18T07:58:15.547Z,-0.71
2023-01-18T08:01:07.189Z,-0.33
2023-01-18T08:03:54.634Z,-0.37
2023-01-18T08:06:41.265Z,-0.30
2023-01-18T08:09:27.425Z,-0.57
2023-01-18T08:12:17.954Z,-0.75
2023-01-18T08:15:04.733Z,-0.23
2023-01-18T08:17:51.588Z,-0.44
2023-01-18T08:20:38.044Z,-0.15
2023-01-18T08:23:24.562Z,-0.32
2023-01-18T08:26:12.859Z,-0.18
2023-01-18T08:28:59.218Z,-0.31
2023-01-18T08:31:45.691Z,-0.07
2023-01-18T08:34:31.951Z,0.03
2023-01-18T08:37:18.334Z,-0.16
2023-01-18T08:40:04.939Z,-0.07
2023-01-18T08:42:56.850Z,-0.19
2023-01-18T08:45:43.360Z,-0.21
2023-01-18T08:48:29.800Z,-0.17
2023-01-18T08:51:18.766Z,-0.19
2023-01-18T08:54:06.495Z,-0.18
2023-01-18T08:56:53.101Z,-0.05
2023-01-18T08:59:39.394Z,-0.26
2023-01-18T09:02:26.075Z,-0.02
2023-01-18T09:05:12.711Z,-0.24
2023-01-18T09:07:59.089Z,-0.04
2023-01-18T09:10:45.478Z,0.07
2023-01-18T09:13:32.858Z,0.05
2023-01-18T09:16:19.134Z,0.03
2023-01-18T09:19:06.446Z,-0.05
2023-01-18T09:21:53.273Z,0.13
2023-01-18T09:24:39.413Z,-0.04
2023-01-18T09:27:25.687Z,0.02
2023-01-18T09:30:12.552Z,0.14
2023-01-18T09:32:59.322Z,0.39
2023-01-18T09:35:47.805Z,0.55
2023-01-18T09:38:35.058Z,0.60
2023-01-18T09:41:42.955Z,0.62
2023-01-18T09:44:40.560Z,0.77
2023-01-18T09:47:30.805Z,0.89
2023-01-18T09:50:18.951Z,0.80
2023-01-18T09:53:49.993Z,1.17
2023-01-18T09:56:46.696Z,1.23
2023-01-18T09:59:41.951Z,1.29
2023-01-18T10:02:39.200Z,1.39
2023-01-18T10:05:29.491Z,1.13
2023-01-18T10:08:25.331Z,1.11
2023-01-18T10:11:21.099Z,1.14
2023-01-18T10:14:29.266Z,1.20
2023-01-18T10:17:22.893Z,1.17
2023-01-18T10:20:20.095Z,1.10
2023-01-18T10:23:31.315Z,1.21
2023-01-18T10:26:29.085Z,1.16
2023-01-18T10:29:42.539Z,1.32
2023-01-18T10:32:30.510Z,1.45
2023-01-18T10:35:27.840Z,1.26
2023-01-18T10:38:19.783Z,1.37
2023-01-18T10:41:21.419Z,1.41
2023-01-18T10:44:09.330Z,1.55
2023-01-18T10:47:01.098Z,1.70
2023-01-18T10:49:50.421Z,1.82
2023-01-18T10:52:36.707Z,1.93
2023-01-18T10:55:23.727Z,2.06
2023-01-18T10:58:14.232Z,2.00
2023-01-18T11:01:03.547Z,2.05
2023-01-18T11:03:53.364Z,2.02
2023-01-18T11:06:56.120Z,1.80
2023-01-18T11:09:48.530Z,1.72
2023-01-18T11:12:37.700Z,1.74
2023-01-18T11:15:27.062Z,1.69
2023-01-18T11:18:13.567Z,1.54
2023-01-18T11:21:00.426Z,1.49
2023-01-18T11:23:46.750Z,1.67
2023-01-18T11:26:33.627Z,1.82
2023-01-18T11:29:22.142Z,2.00
2023-01-18T11:32:28.609Z,1.97
2023-01-18T11:35:25.248Z,1.91
2023-01-18T11:38:19.027Z,1.94
2023-01-18T11:41:25.652Z,1.79
2023-01-18T11:44:32.947Z,1.44
2023-01-18T11:47:27.449Z,1.72
2023-01-18T11:50:22.203Z,1.69
2023-01-18T11:53:19.613Z,1.32
2023-01-18T11:56:13.459Z,1.39
2023-01-18T11:59:01.089Z,1.16
2023-01-18T12:02:18.621Z,1.32
2023-01-18T12:05:11.928Z,1.27
2023-01-18T12:08:10.733Z,1.20
2023-01-18T12:11:17.657Z,1.33
2023-01-18T12:14:14.075Z,1.47
2023-01-18T12:17:25.307Z,1.65
2023-01-18T12:20:29.146Z,1.86
2023-01-18T12:23:24.449Z,1.97
2023-01-18T12:26:35.127Z,2.00
2023-01-18T12:29:44.780Z,2.20
2023-01-18T12:32:50.426Z,2.25
2023-01-18T12:36:03.498Z,2.16
2023-01-18T12:38:53.919Z,2.47
2023-01-18T12:41:49.791Z,2.60
2023-01-18T12:44:58.145Z,2.58
2023-01-18T12:48:03.359Z,2.44
2023-01-18T12:50:51.047Z,2.54
2023-01-18T12:53:45.945Z,2.56
2023-01-18T12:56:39.355Z,2.92
2023-01-18T12:59:43.035Z,2.73
2023-01-18T13:02:39.999Z,2.56
2023-01-18T13:05:51.035Z,2.22
2023-01-18T13:09:12.663Z,1.93
2023-01-18T13:12:03.638Z,1.83
2023-01-18T13:15:08.180Z,1.74
2023-01-18T13:18:09.923Z,1.87
2023-01-18T13:21:05.486Z,1.96
2023-01-18T13:24:10.741Z,1.97
2023-01-18T13:27:27.201Z,1.90
2023-01-18T13:30:17.176Z,1.84
2023-01-18T13:33:12.863Z,1.74
2023-01-18T13:36:09.313Z,1.89
2023-01-18T13:39:13.930Z,1.81
2023-01-18T13:42:09.665Z,1.83
2023-01-18T13:45:20.493Z,1.58
2023-01-18T13:48:46.475Z,1.67
2023-01-18T13:51:41.887Z,1.68
2023-01-18T13:54:28.509Z,1.86
2023-01-18T13:57:18.096Z,1.92
2023-01-18T14:00:05.756Z,1.98
2023-01-18T14:03:02.236Z,1.93
2023-01-18T14:05:50.365Z,2.03
2023-01-18T14:08:41.044Z,1.96
2023-01-18T14:11:34.324Z,1.95
2023-01-18T14:14:20.929Z,1.87
2023-01-18T14:17:15.601Z,1.81
2023-01-18T14:20:32.079Z,1.77
2023-01-18T14:23:41.142Z,1.90
2023-01-18T14:26:30.990Z,1.94
2023-01-18T14:29:52.159Z,1.86
2023-01-18T14:32:44.818Z,1.82
2023-01-18T14:35:31.360Z,1.69
2023-01-18T14:38:19.134Z,1.74
2023-01-18T14:41:08.663Z,1.75
2023-01-18T14:43:55.095Z,1.62
2023-01-18T14:46:42.878Z,1.68
2023-01-18T14:49:32.480Z,1.75
2023-01-18T14:52:18.916Z,1.74
2023-01-18T14:55:05.911Z,1.65
2023-01-18T14:58:00.927Z,1.48
2023-01-18T15:05:21.198Z,1.64
2023-01-18T15:08:09.450Z,1.43
2023-01-18T15:10:56.795Z,1.50
2023-01-18T15:13:49.182Z,1.42
2023-01-18T15:16:36.031Z,1.43
2023-01-18T15:19:32.509Z,1.38
2023-01-18T15:22:21.413Z,1.39
2023-01-18T15:25:18.857Z,1.34
2023-01-18T15:28:18.607Z,1.34
2023-01-18T15:31:16.365Z,1.31
2023-01-18T15:34:03.170Z,1.20
2023-01-18T15:36:50.115Z,1.15
2023-01-18T15:39:49.225Z,1.19
2023-01-18T15:42:59.843Z,1.12
2023-01-18T15:45:49.417Z,0.99
2023-01-18T15:48:54.642Z,0.92
2023-01-18T15:51:57.182Z,0.82
2023-01-18T15:54:43.565Z,0.82
2023-01-18T15:57:30.836Z,0.85
2023-01-18T16:01:07.751Z,0.81
2023-01-18T16:04:00.128Z,0.62
2023-01-18T16:06:46.530Z,0.65
2023-01-18T16:09:34.498Z,0.64
2023-01-18T16:12:47.134Z,0.50
2023-01-18T16:15:33.255Z,0.40
2023-01-18T16:18:19.564Z,0.18
2023-01-18T16:21:13.116Z,0.07
2023-01-18T16:23:59.925Z,-0.13
2023-01-18T16:26:46.731Z,-0.13
2023-01-18T16:29:45.302Z,-0.33
2023-01-18T16:32:35.478Z,-0.41
2023-01-18T16:35:23.743Z,-0.25
2023-01-18T16:38:18.356Z,-0.43
2023-01-18T16:41:04.931Z,-0.62
2023-01-18T16:43:52.082Z,-0.81
2023-01-18T16:46:38.391Z,-0.68
2023-01-18T16:49:27.022Z,-0.92
2023-01-18T16:52:14.669Z,-0.88
2023-01-18T16:55:01.100Z,-1.02
2023-01-18T16:57:47.622Z,-1.27
2023-01-18T17:00:54.304Z,-1.23
2023-01-18T17:03:40.937Z,-1.44
2023-01-18T17:06:29.241Z,-1.23
2023-01-18T17:09:28.079Z,-1.20
2023-01-18T17:12:16.892Z,-1.30
2023-01-18T17:15:03.284Z,-1.39
2023-01-18T17:17:50.340Z,-1.65
2023-01-18T17:20:37.052Z,-1.42
2023-01-18T17:23:25.610Z,-1.32
2023-01-18T17:26:14.908Z,-1.46
2023-01-18T17:29:01.411Z,-1.64
2023-01-18T17:31:53.357Z,-1.84
2023-01-18T17:34:39.777Z,-1.65
2023-01-18T17:37:26.339Z,-1.82
2023-01-18T17:40:22.569Z,-2.11
2023-01-18T17:43:17.259Z,-2.29
2023-01-18T17:46:06.929Z,-2.46
2023-01-18T17:48:53.616Z,-2.65
2023-01-18T17:51:39.839Z,-2.70
2023-01-18T17:54:26.095Z,-2.75
2023-01-18T17:57:12.316Z,-2.87
2023-01-18T17:59:58.738Z,-2.97
2023-01-18T18:02:46.595Z,-2.93
2023-01-18T18:05:32.813Z,-3.04
2023-01-18T18:08:20.051Z,-3.00
2023-01-18T18:11:09.067Z,-3.01
2023-01-18T18:13:56.739Z,-2.95
2023-01-18T18:16:44.102Z,-2.95
2023-01-18T18:19:32.450Z,-3.00
2023-01-18T18:22:19.986Z,-2.93
2023-01-18T18:25:07.325Z,-2.78
2023-01-18T18:27:53.876Z,-2.64
2023-01-18T18:30:40.193Z,-2.43
2023-01-18T18:33:28.107Z,-2.20
2023-01-18T18:36:14.633Z,-2.15
2023-01-18T18:39:02.324Z,-2.17
2023-01-18T18:41:48.645Z,-2.10
2023-01-18T18:44:35.328Z,-2.13
2023-01-18T18:47:21.768Z,-2.22
2023-01-18T18:50:08.971Z,-2.22
2023-01-18T18:52:55.431Z,-2.28
2023-01-18T18:55:42.107Z,-2.17
2023-01-18T18:58:28.871Z,-2.26
2023-01-18T19:01:27.009Z,-2.07
2023-01-18T19:04:13.897Z,-2.12
2023-01-18T19:07:00.439Z,-2.09
2023-01-18T19:09:46.994Z,-2.50
2023-01-18T19:12:33.708Z,-2.16
2023-01-18T19:15:20.787Z,-2.02
2023-01-18T19:18:06.894Z,-2.09
2023-01-18T19:20:53.462Z,-2.22
2023-01-18T19:23:39.706Z,-2.06
2023-01-18T19:26:26.044Z,-2.12
2023-01-18T19:29:12.730Z,-2.16
2023-01-18T19:31:59.221Z,-2.12
2023-01-18T19:34:45.246Z,-2.03
2023-01-18T19:37:31.903Z,-1.76
2023-01-18T19:40:19.632Z,-1.68
2023-01-18T19:43:06.205Z,-1.72
2023-01-18T19:45:52.658Z,-1.99
2023-01-18T19:48:40.260Z,-1.94
2023-01-18T19:51:27.789Z,-2.15
2023-01-18T19:54:14.586Z,-2.47
2023-01-18T19:57:01.127Z,-2.58
2023-01-18T19:59:47.284Z,-2.56
2023-01-18T20:02:34.428Z,-2.55
2023-01-18T20:05:21.423Z,-2.47
2023-01-18T20:08:08.339Z,-2.47
2023-01-18T20:10:55.660Z,-2.55
2023-01-18T20:13:47.600Z,-2.54
2023-01-18T20:16:33.988Z,-2.55
2023-01-18T20:19:20.433Z,-2.53
2023-01-18T20:22:07.309Z,-2.66
2023-01-18T20:24:54.197Z,-2.69
2023-01-18T20:27:40.511Z,-3.05
2023-01-18T20:30:27.023Z,-2.89
2023-01-18T20:33:14.524Z,-2.88
2023-01-18T20:36:02.775Z,-2.99
2023-01-18T20:38:49.485Z,-2.88
2023-01-18T20:41:35.689Z,-2.90
2023-01-18T20:44:24.639Z,-3.07
2023-01-18T20:47:11.301Z,-3.15
2023-01-18T20:50:00.768Z,-3.23
2023-01-18T20:52:47.476Z,-2.81
2023-01-18T20:55:34.050Z,-2.98
2023-01-18T20:58:22.815Z,-2.85
2023-01-18T21:01:17.886Z,-2.93
2023-01-18T21:04:05.183Z,-2.88
2023-01-18T21:06:51.542Z,-2.71
2023-01-18T21:09:38.493Z,-2.57
2023-01-18T21:12:25.191Z,-2.81
2023-01-18T21:15:12.044Z,-2.82
2023-01-18T21:17:58.974Z,-2.88
2023-01-18T21:20:54.756Z,-2.79
2023-01-18T21:23:41.732Z,-2.73
2023-01-18T21:26:28.213Z,-2.72
2023-01-18T21:29:14.640Z,-2.78
2023-01-18T21:32:01.524Z,-2.84
2023-01-18T21:34:48.098Z,-2.80
2023-01-18T21:37:35.363Z,-2.94
2023-01-18T21:40:21.683Z,-3.05
2023-01-18T21:43:26.651Z,-3.44
2023-01-18T21:46:13.455Z,-3.32
2023-01-18T21:49:04.525Z,-3.35
2023-01-18T21:52:09.555Z,-3.38
2023-01-18T21:54:55.875Z,-3.47
2023-01-18T21:57:42.749Z,-3.65
2023-01-18T22:00:29.415Z,-3.60
2023-01-18T22:03:18.435Z,-3.60
2023-01-18T22:06:04.781Z,-3.60
2023-01-18T22:08:51.395Z,-3.57
2023-01-18T22:11:37.765Z,-3.66
2023-01-18T22:14:25.690Z,-3.68
2023-01-18T22:17:13.237Z,-3.74
2023-01-18T22:20:00.157Z,-3.56
2023-01-18T22:22:47.744Z,-3.66
2023-01-18T22:25:34.377Z,-3.72
2023-01-18T22:28:20.991Z,-3.70
2023-01-18T22:31:08.294Z,-3.72
2023-01-18T22:33:56.816Z,-3.97
2023-01-18T22:36:43.371Z,-3.72
2023-01-18T22:39:29.904Z,-3.88
2023-01-18T22:42:16.558Z,-4.03
2023-01-18T22:45:03.812Z,-3.83
2023-01-18T22:47:50.296Z,-3.93
2023-01-18T22:50:36.689Z,-4.01
2023-01-18T22:53:24.784Z,-4.01
2023-01-18T22:56:13.686Z,-4.09
2023-01-18T22:59:00.519Z,-4.09
2023-01-18T23:01:46.976Z,-4.10
2023-01-18T23:04:34.325Z,-4.20
2023-01-18T23:07:20.781Z,-4.29
2023-01-18T23:10:07.888Z,-4.74
2023-01-18T23:12:54.413Z,-4.26
2023-01-18T23:16:03.475Z,-4.25
2023-01-18T23:18:50.005Z,-4.31
2023-01-18T23:21:36.098Z,-4.15
2023-01-18T23:24:23.302Z,-4.02
2023-01-18T23:27:10.111Z,-4.06
2023-01-18T23:29:57.324Z,-3.89
2023-01-18T23:32:43.743Z,-3.93
2023-01-18T23:35:30.157Z,-4.16
2023-01-18T23:38:16.791Z,-4.27
2023-01-18T23:41:22.025Z,-4.37
2023-01-18T23:44:26.922Z,-4.54
2023-01-18T23:47:31.980Z,-4.45
2023-01-18T23:50:37.121Z,-4.52
2023-01-18T23:53:42.509Z,-4.49
2023-01-18T23:56:29.351Z,-4.38
2023-01-18T23:59:15.495Z,-4.38
